createdAt,value
2023-10-15T00:01:10.581Z,6.37
2023-10-15T00:03:40.635Z,8.30
2023-10-15T00:06:08.712Z,11.15
2023-10-15T00:08:39.181Z,12.50
2023-10-15T00:11:14.713Z,14.60
2023-10-15T00:13:44.929Z,12.00
2023-10-15T00:16:19.010Z,10.43
2023-10-15T00:18:48.569Z,8.93
2023-10-15T00:21:16.765Z,10.45
2023-10-15T00:23:48.196Z,9.20
2023-10-15T00:26:17.104Z,8.17
2023-10-15T00:28:48.161Z,12.07
2023-10-15T00:31:16.667Z,10.67
2023-10-15T00:33:47.773Z,15.43
2023-10-15T00:36:17.340Z,8.67
2023-10-15T00:38:46.583Z,10.68
2023-10-15T00:41:15.385Z,8.23
2023-10-15T00:43:53.505Z,11.63
2023-10-15T00:46:21.860Z,10.40
2023-10-15T00:48:50.598Z,10.83
2023-10-15T00:51:21.533Z,9.73
2023-10-15T00:53:54.058Z,9.27
2023-10-15T00:56:28.061Z,13.17
2023-10-15T00:59:09.492Z,8.10
2023-10-15T01:01:40.949Z,13.07
2023-10-15T01:04:10.903Z,10.07
2023-10-15T01:06:44.669Z,11.52
2023-10-15T01:09:19.956Z,10.93
2023-10-15T01:11:57.095Z,8.17
2023-10-15T01:14:31.873Z,10.63
2023-10-15T01:17:01.217Z,8.60
2023-10-15T01:19:38.352Z,7.93
2023-10-15T01:22:09.677Z,7.93
2023-10-15T01:24:39.041Z,10.23
2023-10-15T01:27:11.199Z,11.37
2023-10-15T01:29:42.322Z,8.80
2023-10-15T01:32:12.249Z,9.07
2023-10-15T01:34:42.696Z,8.50
2023-10-15T01:37:16.811Z,5.75
2023-10-15T01:39:49.966Z,5.53
2023-10-15T01:42:41.913Z,8.33
2023-10-15T01:45:18.567Z,6.93
2023-10-15T01:48:05.358Z,6.23
2023-10-15T01:50:42.394Z,6.53
2023-10-15T01:53:10.465Z,6.87
2023-10-15T01:55:38.655Z,4.53
2023-10-15T01:58:13.187Z,5.50
2023-10-15T02:00:45.285Z,4.23
2023-10-15T02:03:13.608Z,6.07
2023-10-15T02:05:46.291Z,6.20
2023-10-15T02:08:17.791Z,3.03
2023-10-15T02:10:49.012Z,3.37
2023-10-15T02:13:18.945Z,3.37
2023-10-15T02:15:50.903Z,2.67
2023-10-15T02:18:19.984Z,2.90
2023-10-15T02:21:02.277Z,2.57
2023-10-15T02:23:34.343Z,5.00
2023-10-15T02:26:03.006Z,5.53
2023-10-15T02:28:34.193Z,3.00
2023-10-15T02:31:15.579Z,1.80
2023-10-15T02:33:45.977Z,2.23
2023-10-15T02:36:17.638Z,2.70
2023-10-15T02:38:54.588Z,2.47
2023-10-15T02:41:23.951Z,1.20
2023-10-15T02:43:56.761Z,2.53
2023-10-15T02:46:29.909Z,1.70
2023-10-15T02:48:57.989Z,3.27
2023-10-15T02:51:26.476Z,3.47
2023-10-15T02:53:56.134Z,0.53
2023-10-15T02:56:24.704Z,2.65
2023-10-15T02:58:55.536Z,2.10
2023-10-15T03:01:25.865Z,2.33
2023-10-15T03:06:29.981Z,4.70
2023-10-15T03:08:58.662Z,1.07
2023-10-15T03:11:32.944Z,3.47
2023-10-15T03:14:04.923Z,1.93
2023-10-15T03:16:34.560Z,1.13
2023-10-15T03:19:10.849Z,3.22
2023-10-15T03:21:40.577Z,1.30
2023-10-15T03:24:09.667Z,0.20
2023-10-15T03:26:38.459Z,0.77
2023-10-15T03:29:11.145Z,2.03
2023-10-15T03:31:39.498Z,0.23
2023-10-15T03:34:20.945Z,1.27
2023-10-15T03:36:53.072Z,1.43
2023-10-15T03:39:28.022Z,1.03
2023-10-15T03:42:10.499Z,0.70
2023-10-15T03:44:45.535Z,1.20
2023-10-15T03:47:14.785Z,1.20
2023-10-15T03:49:45.428Z,1.27
2023-10-15T03:52:21.740Z,1.57
2023-10-15T03:54:50.375Z,2.40
2023-10-15T03:57:20.023Z,1.10
2023-10-15T03:59:53.205Z,2.33
2023-10-15T04:02:39.763Z,3.40
2023-10-15T04:05:13.545Z,2.20
2023-10-15T04:07:49.923Z,1.10
2023-10-15T04:10:24.974Z,1.97
2023-10-15T04:12:53.768Z,1.50
2023-10-15T04:15:23.632Z,1.60
2023-10-15T04:17:52.866Z,0.10
2023-10-15T04:20:27.284Z,1.23
2023-10-15T04:22:55.689Z,0.50
2023-10-15T04:25:28.310Z,0.37
2023-10-15T04:27:57.004Z,2.83
2023-10-15T04:30:26.943Z,0.83
2023-10-15T04:32:58.551Z,0.20
2023-10-15T04:35:31.203Z,1.03
2023-10-15T04:38:00.940Z,1.70
2023-10-15T04:40:29.073Z,0.77
2023-10-15T04:43:01.283Z,1.80
2023-10-15T04:45:41.791Z,0.40
2023-10-15T04:48:16.741Z,1.45
2023-10-15T04:50:46.600Z,0.20
2023-10-15T04:53:18.389Z,2.20
2023-10-15T04:55:47.466Z,0.20
2023-10-15T04:58:15.881Z,2.47
2023-10-15T05:00:49.164Z,1.07
2023-10-15T05:03:17.498Z,1.10
2023-10-15T05:05:45.996Z,0.67
2023-10-15T05:08:15.096Z,1.57
2023-10-15T05:10:47.483Z,0.27
2023-10-15T05:13:15.694Z,0.30
2023-10-15T05:15:46.245Z,1.73
2023-10-15T05:18:14.717Z,1.10
2023-10-15T05:20:42.877Z,0.37
2023-10-15T05:23:11.233Z,0.93
2023-10-15T05:25:41.468Z,0.93
2023-10-15T05:28:10.174Z,0.73
2023-10-15T05:30:39.352Z,0.70
2023-10-15T05:33:09.487Z,1.53
2023-10-15T05:35:38.944Z,1.67
2023-10-15T05:38:10.393Z,0.55
2023-10-15T05:40:39.698Z,0.37
2023-10-15T05:43:07.840Z,0.20
2023-10-15T05:45:38.616Z,1.40
2023-10-15T05:48:08.891Z,2.57
2023-10-15T05:53:05.020Z,0.30
2023-10-15T05:55:33.719Z,1.40
2023-10-15T05:58:01.878Z,0.20
2023-10-15T06:00:29.911Z,1.30
2023-10-15T06:03:00.339Z,0.20
2023-10-15T06:05:29.856Z,0.20
2023-10-15T06:07:57.836Z,0.20
2023-10-15T06:10:26.066Z,0.30
2023-10-15T06:12:54.114Z,0.10
2023-10-15T06:15:23.694Z,0.10
2023-10-15T06:17:53.272Z,0.73
2023-10-15T06:20:21.895Z,0.20
2023-10-15T06:22:56.474Z,0.10
2023-10-15T06:25:26.315Z,1.30
2023-10-15T06:27:54.303Z,0.10
2023-10-15T06:30:24.840Z,0.37
2023-10-15T06:32:54.913Z,0.10
2023-10-15T06:35:24.628Z,0.25
2023-10-15T06:37:57.022Z,1.98
2023-10-15T06:40:25.831Z,0.60
2023-10-15T06:43:01.363Z,0.20
2023-10-15T06:45:30.092Z,0.20
2023-10-15T06:47:58.157Z,0.90
2023-10-15T06:50:27.627Z,0.20
2023-10-15T06:52:57.725Z,0.10
2023-10-15T06:55:25.709Z,0.35
2023-10-15T06:57:54.842Z,0.33
2023-10-15T07:00:26.770Z,0.70
2023-10-15T07:02:56.702Z,1.80
2023-10-15T07:05:27.336Z,0.10
2023-10-15T07:07:58.790Z,0.10
2023-10-15T07:10:27.644Z,0.27
2023-10-15T07:12:56.317Z,1.93
2023-10-15T07:15:25.439Z,0.07
2023-10-15T07:17:54.688Z,0.40
2023-10-15T07:20:26.847Z,0.13
2023-10-15T07:22:58.292Z,0.20
2023-10-15T07:25:28.153Z,2.17
2023-10-15T07:27:58.653Z,0.80
2023-10-15T07:30:27.691Z,0.90
2023-10-15T07:32:59.193Z,1.80
2023-10-15T07:35:29.328Z,0.37
2023-10-15T07:37:59.484Z,0.52
2023-10-15T07:40:28.466Z,0.20
2023-10-15T07:43:00.720Z,0.43
2023-10-15T07:45:31.050Z,1.83
2023-10-15T07:48:02.318Z,1.35
2023-10-15T07:50:32.361Z,1.00
2023-10-15T07:53:02.476Z,0.40
2023-10-15T07:55:30.937Z,1.05
2023-10-15T07:57:59.673Z,0.70
2023-10-15T08:00:30.750Z,0.83
2023-10-15T08:03:00.717Z,0.10
2023-10-15T08:07:59.042Z,0.73
2023-10-15T08:10:33.705Z,1.53
2023-10-15T08:13:03.245Z,1.07
2023-10-15T08:15:33.747Z,0.60
2023-10-15T08:18:04.604Z,0.23
2023-10-15T08:20:33.402Z,0.73
2023-10-15T08:23:02.066Z,3.00
2023-10-15T08:25:33.753Z,0.77
2023-10-15T08:28:04.488Z,0.83
2023-10-15T08:30:33.733Z,2.22
2023-10-15T08:33:01.956Z,0.30
2023-10-15T08:35:30.229Z,0.10
2023-10-15T08:38:01.267Z,1.13
2023-10-15T08:40:32.081Z,0.23
2023-10-15T08:45:36.826Z,0.67
2023-10-15T08:48:07.262Z,0.77
2023-10-15T08:53:08.339Z,1.75
2023-10-15T08:55:39.018Z,0.30
2023-10-15T08:58:10.412Z,0.40
2023-10-15T09:00:39.239Z,2.27
2023-10-15T09:03:07.669Z,1.57
2023-10-15T09:05:38.569Z,1.90
2023-10-15T09:08:09.517Z,0.73
2023-10-15T09:10:41.841Z,1.13
2023-10-15T09:13:18.473Z,2.70
2023-10-15T09:15:48.804Z,1.97
2023-10-15T09:18:18.386Z,1.15
2023-10-15T09:20:52.446Z,1.75
2023-10-15T09:23:23.329Z,1.40
2023-10-15T09:25:57.232Z,2.60
2023-10-15T09:28:29.558Z,1.47
2023-10-15T09:31:04.325Z,1.40
2023-10-15T09:33:33.984Z,1.23
2023-10-15T09:36:03.973Z,0.52
2023-10-15T09:38:33.095Z,1.58
2023-10-15T09:41:09.432Z,0.80
2023-10-15T09:43:38.868Z,1.00
2023-10-15T09:46:08.687Z,1.88
2023-10-15T09:48:38.803Z,1.75
2023-10-15T09:51:09.133Z,1.65
2023-10-15T09:53:38.022Z,1.88
2023-10-15T09:56:14.797Z,2.40
2023-10-15T09:58:45.383Z,1.97
2023-10-15T10:01:27.542Z,1.43
2023-10-15T10:04:21.139Z,2.23
2023-10-15T10:07:15.508Z,2.47
2023-10-15T10:10:19.897Z,2.87
2023-10-15T10:13:07.899Z,3.13
2023-10-15T10:15:44.461Z,3.47
2023-10-15T10:18:15.513Z,3.33
2023-10-15T10:20:49.313Z,3.90
2023-10-15T10:23:18.589Z,3.03
2023-10-15T10:25:50.380Z,4.50
2023-10-15T10:28:24.207Z,4.97
2023-10-15T10:30:56.821Z,5.27
2023-10-15T10:33:42.059Z,2.03
2023-10-15T10:36:13.880Z,3.17
2023-10-15T10:38:44.129Z,2.73
2023-10-15T10:41:25.421Z,2.67
2023-10-15T10:44:09.863Z,3.13
2023-10-15T10:46:45.224Z,2.13
2023-10-15T10:49:18.441Z,5.40
2023-10-15T10:52:06.057Z,3.47
2023-10-15T10:54:36.647Z,1.73
2023-10-15T10:57:12.158Z,4.10
2023-10-15T10:59:43.919Z,3.97
2023-10-15T11:02:17.214Z,3.80
2023-10-15T11:04:45.664Z,3.33
2023-10-15T11:07:15.472Z,4.40
2023-10-15T11:09:44.089Z,3.58
2023-10-15T11:12:13.296Z,5.93
2023-10-15T11:14:42.954Z,4.10
2023-10-15T11:17:11.244Z,4.77
2023-10-15T11:19:41.025Z,4.33
2023-10-15T11:22:09.470Z,5.88
2023-10-15T11:24:37.504Z,2.07
2023-10-15T11:27:08.706Z,4.93
2023-10-15T11:29:37.198Z,2.77
2023-10-15T11:32:09.755Z,4.73
2023-10-15T11:34:37.795Z,3.50
2023-10-15T11:37:07.191Z,2.57
2023-10-15T11:39:43.793Z,3.37
2023-10-15T11:42:12.525Z,5.23
2023-10-15T11:44:43.713Z,2.57
2023-10-15T11:47:21.565Z,4.90
2023-10-15T11:49:51.485Z,4.47
2023-10-15T11:52:23.179Z,3.40
2023-10-15T11:54:52.368Z,3.33
2023-10-15T11:57:24.866Z,5.82
2023-10-15T11:59:56.291Z,5.43
2023-10-15T12:02:28.382Z,3.10
2023-10-15T12:04:58.721Z,6.27
2023-10-15T12:07:30.250Z,3.60
2023-10-15T12:10:00.083Z,3.30
2023-10-15T12:12:28.522Z,3.90
2023-10-15T12:14:58.971Z,3.50
2023-10-15T12:17:28.632Z,7.53
2023-10-15T12:20:16.136Z,8.57
2023-10-15T12:22:44.918Z,4.43
2023-10-15T12:25:13.302Z,6.57
2023-10-15T12:27:41.206Z,5.03
2023-10-15T12:30:14.790Z,5.50
2023-10-15T12:32:47.331Z,6.27
2023-10-15T12:35:17.833Z,2.70
2023-10-15T12:37:46.117Z,7.72
2023-10-15T12:40:23.343Z,4.83
2023-10-15T12:42:53.441Z,5.70
2023-10-15T12:45:21.738Z,3.08
2023-10-15T12:47:51.214Z,3.10
2023-10-15T12:50:19.414Z,5.47
2023-10-15T12:52:49.113Z,2.73
2023-10-15T12:55:18.811Z,4.78
2023-10-15T12:57:51.623Z,6.03
2023-10-15T13:00:22.575Z,4.37
2023-10-15T13:02:54.930Z,4.23
2023-10-15T13:05:24.840Z,3.40
2023-10-15T13:07:55.086Z,2.40
2023-10-15T13:10:24.048Z,4.20
2023-10-15T13:12:54.061Z,5.03
2023-10-15T13:15:22.939Z,3.78
2023-10-15T13:17:56.299Z,5.60
2023-10-15T13:20:25.651Z,2.47
2023-10-15T13:22:53.737Z,4.80
2023-10-15T13:25:23.622Z,4.03
2023-10-15T13:27:52.041Z,4.40
2023-10-15T13:30:23.768Z,3.47
2023-10-15T13:32:53.580Z,4.13
2023-10-15T13:35:21.727Z,2.13
2023-10-15T13:37:49.742Z,3.43
2023-10-15T13:40:20.120Z,2.13
2023-10-15T13:45:19.037Z,3.13
2023-10-15T13:47:48.817Z,5.33
2023-10-15T13:50:19.675Z,3.70
2023-10-15T13:52:49.052Z,1.80
2023-10-15T13:55:17.854Z,3.13
2023-10-15T13:57:46.149Z,1.63
2023-10-15T14:00:20.974Z,2.40
2023-10-15T14:02:50.970Z,2.67
2023-10-15T14:05:24.607Z,1.92
2023-10-15T14:07:55.545Z,2.67
2023-10-15T14:10:23.799Z,2.83
2023-10-15T14:12:55.048Z,7.00
2023-10-15T14:15:27.856Z,2.27
2023-10-15T14:17:58.201Z,2.67
2023-10-15T14:22:59.127Z,2.00
2023-10-15T14:25:27.089Z,2.43
2023-10-15T14:27:55.019Z,2.20
2023-10-15T14:30:23.110Z,1.73
2023-10-15T14:32:51.086Z,2.63
2023-10-15T14:35:19.902Z,0.97
2023-10-15T14:37:49.593Z,3.00
2023-10-15T14:40:17.615Z,1.70
2023-10-15T14:42:46.471Z,2.23
2023-10-15T14:45:17.521Z,2.17
2023-10-15T14:47:45.506Z,2.27
2023-10-15T14:50:14.361Z,2.43
2023-10-15T14:52:43.026Z,2.47
2023-10-15T14:55:14.210Z,1.10
2023-10-15T14:57:42.246Z,2.97
2023-10-15T15:00:15.711Z,1.37
2023-10-15T15:02:44.831Z,3.43
2023-10-15T15:05:13.955Z,0.80
2023-10-15T15:07:42.095Z,3.33
2023-10-15T15:10:10.440Z,0.80
2023-10-15T15:12:39.800Z,2.20
2023-10-15T15:15:08.427Z,0.73
2023-10-15T15:17:38.357Z,2.33
2023-10-15T15:20:08.819Z,1.60
2023-10-15T15:25:09.559Z,1.40
2023-10-15T15:27:37.624Z,2.93
2023-10-15T15:30:10.367Z,1.70
2023-10-15T15:32:39.091Z,3.23
2023-10-15T15:35:08.486Z,0.77
2023-10-15T15:37:37.002Z,1.13
2023-10-15T15:40:07.286Z,1.50
2023-10-15T15:42:35.442Z,0.85
2023-10-15T15:45:03.460Z,1.07
2023-10-15T15:47:33.931Z,3.10
2023-10-15T15:50:01.965Z,1.07
2023-10-15T15:52:31.411Z,2.73
2023-10-15T15:54:59.553Z,0.97
2023-10-15T15:57:27.437Z,0.63
2023-10-15T15:59:55.427Z,1.70
2023-10-15T16:02:26.757Z,4.13
2023-10-15T16:04:56.689Z,0.80
2023-10-15T16:07:25.132Z,0.75
2023-10-15T16:09:53.006Z,0.63
2023-10-15T16:12:21.041Z,1.33
2023-10-15T16:14:49.015Z,0.50
2023-10-15T16:17:17.139Z,0.97
2023-10-15T16:19:45.293Z,1.57
2023-10-15T16:22:14.705Z,1.80
2023-10-15T16:24:49.951Z,0.57
2023-10-15T16:27:26.242Z,2.17
2023-10-15T16:29:54.228Z,0.93
2023-10-15T16:32:22.196Z,2.30
2023-10-15T16:34:50.253Z,1.50
2023-10-15T16:37:19.673Z,2.13
2023-10-15T16:39:47.577Z,3.03
2023-10-15T16:42:15.628Z,2.07
2023-10-15T16:44:46.308Z,1.23
2023-10-15T16:47:14.289Z,1.33
2023-10-15T16:49:42.412Z,2.70
2023-10-15T16:52:10.570Z,1.83
2023-10-15T16:54:39.855Z,1.73
2023-10-15T16:57:07.910Z,1.83
2023-10-15T16:59:36.012Z,1.67
2023-10-15T17:02:04.234Z,2.83
2023-10-15T17:04:32.583Z,2.30
2023-10-15T17:07:00.707Z,1.77
2023-10-15T17:09:28.894Z,1.90
2023-10-15T17:11:58.719Z,1.30
2023-10-15T17:14:26.771Z,1.57
2023-10-15T17:16:54.923Z,2.90
2023-10-15T17:19:22.986Z,3.23
2023-10-15T17:21:51.149Z,2.60
2023-10-15T17:24:19.135Z,2.53
2023-10-15T17:26:47.078Z,2.23
2023-10-15T17:29:16.410Z,1.53
2023-10-15T17:31:44.338Z,1.83
2023-10-15T17:34:12.395Z,1.27
2023-10-15T17:36:54.900Z,1.50
2023-10-15T17:39:26.362Z,2.13
2023-10-15T17:41:56.792Z,0.87
2023-10-15T17:44:26.293Z,1.25
2023-10-15T17:46:54.634Z,3.85
2023-10-15T17:49:22.734Z,2.83
2023-10-15T17:51:51.957Z,1.60
2023-10-15T17:54:20.510Z,1.93
2023-10-15T17:56:48.500Z,0.70
2023-10-15T17:59:16.490Z,5.50
2023-10-15T18:01:45.800Z,1.57
2023-10-15T18:04:14.042Z,1.43
2023-10-15T18:06:42.144Z,1.93
2023-10-15T18:09:11.013Z,1.60
2023-10-15T18:11:39.619Z,2.40
2023-10-15T18:14:09.128Z,4.00
2023-10-15T18:16:37.376Z,1.80
2023-10-15T18:19:07.254Z,3.47
2023-10-15T18:21:35.404Z,3.15
2023-10-15T18:24:03.601Z,2.50
2023-10-15T18:26:31.686Z,2.40
2023-10-15T18:29:00.820Z,3.10
2023-10-15T18:31:28.779Z,0.53
2023-10-15T18:33:56.893Z,1.90
2023-10-15T18:36:26.631Z,2.27
2023-10-15T18:38:57.130Z,2.65
2023-10-15T18:43:52.816Z,1.53
2023-10-15T18:46:20.804Z,1.53
2023-10-15T18:48:48.934Z,2.57
2023-10-15T18:51:36.560Z,0.93
2023-10-15T18:54:06.957Z,11.30
2023-10-15T18:56:35.041Z,13.93
2023-10-15T18:59:03.921Z,3.53
2023-10-15T19:01:33.638Z,7.00
2023-10-15T19:04:01.733Z,2.40
2023-10-15T19:06:30.587Z,1.33
2023-10-15T19:08:58.943Z,1.43
2023-10-15T19:11:30.825Z,1.77
2023-10-15T19:13:58.717Z,1.60
2023-10-15T19:16:26.870Z,2.03
2023-10-15T19:18:55.592Z,1.20
2023-10-15T19:21:27.879Z,1.13
2023-10-15T19:23:57.153Z,1.83
2023-10-15T19:26:25.078Z,0.90
2023-10-15T19:28:54.714Z,1.90
2023-10-15T19:31:23.152Z,1.67
2023-10-15T19:33:51.251Z,3.80
2023-10-15T19:36:19.448Z,1.33
2023-10-15T19:38:47.696Z,1.17
2023-10-15T19:41:17.053Z,2.47
2023-10-15T19:43:45.069Z,2.70
2023-10-15T19:46:15.522Z,1.57
2023-10-15T19:48:43.680Z,2.00
2023-10-15T19:51:11.612Z,1.77
2023-10-15T19:53:39.691Z,2.17
2023-10-15T19:56:11.445Z,1.77
2023-10-15T19:58:39.799Z,1.80
2023-10-15T20:01:09.513Z,1.60
2023-10-15T20:03:47.511Z,2.35
2023-10-15T20:06:19.145Z,0.90
2023-10-15T20:08:47.080Z,2.53
2023-10-15T20:11:15.091Z,2.77
2023-10-15T20:13:43.853Z,1.43
2023-10-15T20:16:11.783Z,1.73
2023-10-15T20:18:41.150Z,0.70
2023-10-15T20:21:09.721Z,0.90
2023-10-15T20:23:38.261Z,2.10
2023-10-15T20:26:07.100Z,1.33
2023-10-15T20:28:36.878Z,2.30
2023-10-15T20:31:04.924Z,2.73
2023-10-15T20:33:35.466Z,1.17
2023-10-15T20:36:06.080Z,1.23
2023-10-15T20:38:34.741Z,0.93
2023-10-15T20:41:02.736Z,1.40
2023-10-15T20:43:30.691Z,0.90
2023-10-15T20:45:58.782Z,2.23
2023-10-15T20:48:28.851Z,6.43
2023-10-15T20:50:58.747Z,2.20
2023-10-15T20:53:28.122Z,1.30
2023-10-15T20:55:56.889Z,1.80
2023-10-15T20:58:25.007Z,2.43
2023-10-15T21:00:53.152Z,2.03
2023-10-15T21:03:21.251Z,1.30
2023-10-15T21:05:49.433Z,1.00
2023-10-15T21:08:19.362Z,1.90
2023-10-15T21:10:48.608Z,0.47
2023-10-15T21:13:16.679Z,1.07
2023-10-15T21:15:44.864Z,3.70
2023-10-15T21:18:12.978Z,1.20
2023-10-15T21:20:41.109Z,1.67
2023-10-15T21:23:09.984Z,1.20
2023-10-15T21:25:37.909Z,1.50
2023-10-15T21:28:07.862Z,0.50
2023-10-15T21:30:36.201Z,0.65
2023-10-15T21:33:04.606Z,1.23
2023-10-15T21:35:32.607Z,1.80
2023-10-15T21:38:00.532Z,3.70
2023-10-15T21:40:28.500Z,1.33
2023-10-15T21:42:56.553Z,1.13
2023-10-15T21:45:26.229Z,2.40
2023-10-15T21:47:54.356Z,0.45
2023-10-15T21:50:22.396Z,1.23
2023-10-15T21:52:50.291Z,1.10
2023-10-15T21:55:18.869Z,1.33
2023-10-15T21:57:46.933Z,0.53
2023-10-15T22:00:28.445Z,0.80
2023-10-15T22:02:58.727Z,0.63
2023-10-15T22:05:27.254Z,1.45
2023-10-15T22:07:55.245Z,2.67
2023-10-15T22:10:27.653Z,2.20
2023-10-15T22:12:57.305Z,1.83
2023-10-15T22:15:26.260Z,1.85
2023-10-15T22:17:56.650Z,2.57
2023-10-15T22:22:59.289Z,1.57
2023-10-15T22:25:27.459Z,1.40
2023-10-15T22:28:02.999Z,1.03
2023-10-15T22:30:39.054Z,0.87
2023-10-15T22:33:09.502Z,2.80
2023-10-15T22:38:09.132Z,1.30
2023-10-15T22:40:37.100Z,3.40
2023-10-15T22:43:05.436Z,1.00
2023-10-15T22:45:33.409Z,1.00
2023-10-15T22:48:01.533Z,1.23
2023-10-15T22:50:32.420Z,0.97
2023-10-15T22:53:02.027Z,1.47
2023-10-15T22:55:30.628Z,2.05
2023-10-15T22:57:58.950Z,2.60
2023-10-15T23:00:27.384Z,3.17
2023-10-15T23:02:57.810Z,0.83
2023-10-15T23:05:26.508Z,1.47
2023-10-15T23:07:55.636Z,2.33
2023-10-15T23:10:30.222Z,1.20
2023-10-15T23:12:58.281Z,4.97
2023-10-15T23:15:30.446Z,1.63
2023-10-15T23:17:58.667Z,4.77
2023-10-15T23:20:35.406Z,4.83
2023-10-15T23:23:06.810Z,1.77
2023-10-15T23:25:37.155Z,3.10
2023-10-15T23:28:12.159Z,1.85
2023-10-15T23:30:42.639Z,1.70
2023-10-15T23:33:11.213Z,2.37
2023-10-15T23:35:40.018Z,1.57
2023-10-15T23:38:09.535Z,2.67
2023-10-15T23:40:40.278Z,2.72
2023-10-15T23:43:12.252Z,3.57
2023-10-15T23:45:40.506Z,1.70
2023-10-15T23:48:18.016Z,3.57
2023-10-15T23:50:46.945Z,1.50
2023-10-15T23:53:31.223Z,1.67
2023-10-15T23:56:08.338Z,2.20
2023-10-15T23:58:39.682Z,3.90
